createdAt,value
2022-11-23T00:00:31.494Z,2.13
2022-11-23T00:03:34.471Z,3.03
2022-11-23T00:06:37.885Z,13.53
2022-11-23T00:09:40.943Z,6.15
2022-11-23T00:12:44.534Z,3.20
2022-11-23T00:15:47.516Z,3.42
2022-11-23T00:18:57.086Z,1.00
2022-11-23T00:22:00.473Z,9.27
2022-11-23T00:25:03.588Z,9.23
2022-11-23T00:28:06.774Z,2.78
2022-11-23T00:31:15.800Z,6.95
2022-11-23T00:34:18.959Z,9.73
2022-11-23T00:37:21.959Z,6.47
2022-11-23T00:40:25.085Z,8.07
2022-11-23T00:43:29.137Z,8.93
2022-11-23T00:46:33.494Z,0.93
2022-11-23T00:49:36.499Z,2.35
2022-11-23T00:52:39.536Z,5.25
2022-11-23T00:55:51.216Z,3.47
2022-11-23T00:58:56.782Z,1.98
2022-11-23T01:01:59.823Z,5.90
2022-11-23T01:05:04.264Z,10.30
2022-11-23T01:08:08.004Z,2.03
2022-11-23T01:11:13.129Z,5.63
2022-11-23T01:14:16.358Z,4.15
2022-11-23T01:17:19.405Z,3.92
2022-11-23T01:20:22.433Z,2.65
2022-11-23T01:23:25.552Z,5.33
2022-11-23T01:26:28.557Z,2.30
2022-11-23T01:29:34.277Z,4.25
2022-11-23T01:32:37.626Z,3.13
2022-11-23T01:35:40.643Z,3.63
2022-11-23T01:38:43.944Z,4.75
2022-11-23T01:41:47.229Z,2.22
2022-11-23T01:44:52.509Z,2.90
2022-11-23T01:47:55.751Z,1.35
2022-11-23T01:51:01.660Z,5.43
2022-11-23T01:54:32.035Z,3.45
2022-11-23T01:57:41.181Z,11.68
2022-11-23T02:00:45.473Z,3.55
2022-11-23T02:03:50.026Z,2.90
2022-11-23T02:06:54.053Z,5.22
2022-11-23T02:09:57.124Z,9.25
2022-11-23T02:13:06.654Z,6.50
2022-11-23T02:16:12.137Z,5.68
2022-11-23T02:19:30.004Z,10.20
2022-11-23T02:22:51.381Z,7.80
2022-11-23T02:26:00.747Z,3.78
2022-11-23T02:29:19.032Z,4.65
2022-11-23T02:32:25.374Z,5.75
2022-11-23T02:35:32.101Z,15.07
2022-11-23T02:38:35.249Z,5.80
2022-11-23T02:41:50.721Z,3.63
2022-11-23T02:45:15.044Z,7.68
2022-11-23T02:48:19.201Z,9.52
2022-11-23T02:51:22.480Z,3.78
2022-11-23T02:54:25.499Z,11.77
2022-11-23T02:57:28.815Z,21.15
2022-11-23T03:00:32.766Z,14.60
2022-11-23T03:03:36.056Z,8.77
2022-11-23T03:06:40.567Z,7.30
2022-11-23T03:09:43.913Z,7.22
2022-11-23T03:12:46.937Z,6.20
2022-11-23T03:15:50.148Z,8.75
2022-11-23T03:18:53.675Z,5.15
2022-11-23T03:21:56.827Z,8.63
2022-11-23T03:24:59.800Z,4.90
2022-11-23T03:28:04.599Z,6.15
2022-11-23T03:31:09.607Z,5.68
2022-11-23T03:34:13.914Z,5.20
2022-11-23T03:37:17.072Z,3.00
2022-11-23T03:40:20.175Z,4.70
2022-11-23T03:43:49.362Z,4.25
2022-11-23T03:46:54.158Z,3.85
2022-11-23T03:49:57.260Z,3.08
2022-11-23T03:53:00.458Z,1.85
2022-11-23T03:56:05.100Z,3.00
2022-11-23T04:00:01.921Z,2.83
2022-11-23T04:03:05.209Z,2.30
2022-11-23T04:06:26.578Z,3.33
2022-11-23T04:09:29.642Z,3.92
2022-11-23T04:12:54.105Z,4.55
2022-11-23T04:15:58.037Z,3.30
2022-11-23T04:19:01.013Z,3.78
2022-11-23T04:22:04.114Z,3.88
2022-11-23T04:25:13.792Z,3.97
2022-11-23T04:28:46.842Z,4.22
2022-11-23T04:31:50.022Z,4.20
2022-11-23T04:34:54.673Z,4.05
2022-11-23T04:37:57.753Z,2.75
2022-11-23T04:41:03.697Z,2.83
2022-11-23T04:47:12.244Z,2.83
2022-11-23T04:50:15.378Z,5.00
2022-11-23T04:53:22.527Z,3.22
2022-11-23T04:56:26.167Z,4.70
2022-11-23T04:59:29.755Z,12.65
2022-11-23T05:02:34.317Z,3.45
2022-11-23T05:06:15.440Z,4.20
2022-11-23T05:09:20.421Z,4.07
2022-11-23T05:12:34.760Z,3.03
2022-11-23T05:15:38.188Z,5.97
2022-11-23T05:18:43.729Z,8.55
2022-11-23T05:21:47.098Z,7.95
2022-11-23T05:24:51.880Z,8.30
2022-11-23T05:28:03.690Z,10.05
2022-11-23T05:31:14.636Z,9.45
2022-11-23T05:34:20.043Z,11.40
2022-11-23T05:37:23.419Z,6.18
2022-11-23T05:40:35.336Z,6.80
2022-11-23T05:43:39.877Z,15.02
2022-11-23T05:46:45.698Z,12.23
2022-11-23T05:49:50.144Z,19.23
2022-11-23T05:53:00.249Z,10.95
2022-11-23T05:56:03.385Z,15.27
2022-11-23T05:59:12.479Z,12.65
2022-11-23T06:02:19.045Z,8.15
2022-11-23T06:05:25.278Z,6.20
2022-11-23T06:08:28.278Z,12.15
2022-11-23T06:11:33.033Z,9.13
2022-11-23T06:14:42.380Z,9.25
2022-11-23T06:17:46.865Z,7.82
2022-11-23T06:20:54.997Z,11.98
2022-11-23T06:23:59.088Z,13.80
2022-11-23T06:27:06.053Z,11.77
2022-11-23T06:30:09.863Z,10.65
2022-11-23T06:33:13.828Z,15.20
2022-11-23T06:36:23.170Z,10.40
2022-11-23T06:42:39.058Z,10.02
2022-11-23T06:45:47.346Z,11.20
2022-11-23T06:48:51.404Z,8.57
2022-11-23T06:51:54.492Z,10.68
2022-11-23T06:55:05.752Z,10.85
2022-11-23T06:58:13.757Z,11.80
2022-11-23T07:01:21.854Z,9.30
2022-11-23T07:04:59.524Z,10.65
2022-11-23T07:08:16.547Z,12.52
2022-11-23T07:11:32.274Z,11.98
2022-11-23T07:14:50.786Z,16.25
2022-11-23T07:36:46.256Z,13.43
2022-11-23T07:40:59.576Z,18.02
2022-11-23T07:44:46.874Z,8.75
2022-11-23T07:49:14.597Z,10.93
2022-11-23T07:53:15.439Z,19.50
2022-11-23T07:56:42.194Z,11.68
2022-11-23T08:00:19.795Z,17.75
2022-11-23T08:15:56.289Z,11.52
2022-11-23T08:19:00.560Z,16.27
2022-11-23T08:22:16.976Z,9.93
2022-11-23T08:26:17.612Z,13.07
2022-11-23T08:29:40.673Z,15.82
2022-11-23T08:33:20.608Z,21.83
2022-11-23T08:36:59.033Z,18.83
2022-11-23T08:44:56.929Z,14.88
2022-11-23T08:48:03.862Z,15.57
2022-11-23T08:51:13.996Z,10.57
2022-11-23T08:54:32.033Z,14.88
2022-11-23T08:57:54.596Z,37.45
2022-11-23T09:01:12.935Z,11.90
2022-11-23T09:04:59.556Z,14.93
2022-11-23T09:12:42.803Z,22.08
2022-11-23T09:20:34.116Z,18.27
2022-11-23T09:24:25.006Z,19.45
2022-11-23T09:28:40.248Z,29.33
2022-11-23T09:32:17.465Z,19.23
2022-11-23T09:35:44.518Z,21.25
2022-11-23T09:38:58.915Z,22.45
2022-11-23T09:46:41.609Z,22.67
2022-11-23T09:50:13.371Z,19.40
2022-11-23T09:53:27.141Z,23.80
2022-11-23T09:56:39.500Z,19.55
2022-11-23T10:00:06.807Z,21.60
2022-11-23T10:03:16.455Z,10.95
2022-11-23T10:06:26.775Z,13.85
2022-11-23T10:09:35.927Z,10.38
2022-11-23T10:12:48.873Z,7.95
2022-11-23T10:16:02.885Z,14.02
2022-11-23T10:19:14.077Z,4.72
2022-11-23T10:22:45.301Z,6.30
2022-11-23T10:25:51.785Z,7.00
2022-11-23T10:28:55.844Z,5.32
2022-11-23T10:31:59.944Z,4.70
2022-11-23T10:35:18.838Z,6.05
2022-11-23T10:38:25.918Z,3.10
2022-11-23T10:41:31.469Z,2.88
2022-11-23T10:44:38.710Z,3.22
2022-11-23T10:47:49.651Z,2.05
2022-11-23T10:50:52.593Z,4.40
2022-11-23T10:54:05.271Z,4.32
2022-11-23T10:57:43.058Z,3.55
2022-11-23T11:00:46.110Z,2.28
2022-11-23T11:03:49.567Z,2.17
2022-11-23T11:06:52.721Z,2.08
2022-11-23T11:10:03.901Z,1.52
2022-11-23T11:13:33.143Z,2.90
2022-11-23T11:16:38.157Z,2.28
2022-11-23T11:19:41.322Z,1.00
2022-11-23T11:28:56.318Z,0.73
2022-11-23T11:32:31.046Z,1.10
2022-11-23T11:35:37.640Z,0.80
2022-11-23T11:39:01.405Z,0.70
2022-11-23T11:42:14.959Z,1.90
2022-11-23T11:45:24.631Z,1.40
2022-11-23T11:48:48.502Z,3.72
2022-11-23T11:52:16.257Z,1.95
2022-11-23T11:55:27.844Z,1.88
2022-11-23T11:58:33.573Z,1.70
2022-11-23T12:01:44.248Z,1.10
2022-11-23T12:05:12.221Z,1.73
2022-11-23T12:08:18.302Z,1.73
2022-11-23T12:11:21.522Z,1.58
2022-11-23T12:14:25.075Z,3.60
2022-11-23T12:17:43.096Z,0.57
2022-11-23T12:20:57.703Z,1.30
2022-11-23T12:24:06.423Z,1.95
2022-11-23T12:27:30.976Z,2.25
2022-11-23T12:30:43.004Z,1.50
2022-11-23T12:34:07.955Z,1.33
2022-11-23T12:37:58.866Z,1.48
2022-11-23T12:41:10.988Z,1.15
2022-11-23T12:44:39.653Z,0.85
2022-11-23T12:48:00.535Z,1.42
2022-11-23T12:51:44.631Z,1.98
2022-11-23T12:55:21.139Z,1.48
2022-11-23T12:58:31.927Z,1.92
2022-11-23T13:01:42.108Z,0.90
2022-11-23T13:05:27.290Z,0.85
2022-11-23T13:09:21.270Z,1.10
2022-11-23T13:12:55.946Z,0.57
2022-11-23T13:16:46.509Z,1.38
2022-11-23T13:20:34.031Z,1.25
2022-11-23T13:23:40.807Z,1.40
2022-11-23T13:26:44.012Z,1.10
2022-11-23T13:29:52.927Z,1.63
2022-11-23T13:33:27.161Z,0.57
2022-11-23T13:37:04.225Z,1.75
2022-11-23T13:39:59.037Z,0.88
2022-11-23T13:43:22.280Z,0.77
2022-11-23T13:46:29.795Z,1.02
2022-11-23T13:49:38.827Z,0.88
2022-11-23T13:52:50.600Z,2.13
2022-11-23T13:55:56.751Z,0.95
2022-11-23T13:59:24.488Z,1.70
2022-11-23T14:02:31.007Z,2.28
2022-11-23T14:05:59.788Z,0.65
2022-11-23T14:09:10.256Z,0.98
2022-11-23T14:12:13.496Z,1.35
2022-11-23T14:15:25.465Z,2.15
2022-11-23T14:18:51.651Z,1.92
2022-11-23T14:22:22.326Z,1.85
2022-11-23T14:25:34.374Z,2.30
2022-11-23T14:29:14.799Z,2.22
2022-11-23T14:32:27.124Z,6.50
2022-11-23T14:35:42.189Z,3.20
2022-11-23T14:39:04.478Z,3.38
2022-11-23T14:42:15.048Z,3.83
2022-11-23T14:45:20.158Z,3.80
2022-11-23T14:48:31.623Z,3.35
2022-11-23T14:51:36.533Z,1.83
2022-11-23T14:54:40.131Z,2.80
2022-11-23T14:57:46.723Z,2.47
2022-11-23T15:00:50.864Z,1.67
2022-11-23T15:04:01.370Z,1.60
2022-11-23T15:07:07.274Z,2.22
2022-11-23T15:10:42.639Z,1.45
2022-11-23T15:13:51.809Z,3.05
2022-11-23T15:16:54.810Z,1.60
2022-11-23T15:20:00.288Z,1.80
2022-11-23T15:23:04.479Z,2.60
2022-11-23T15:26:34.597Z,2.67
2022-11-23T15:29:39.639Z,1.45
2022-11-23T15:32:42.878Z,1.17
2022-11-23T15:35:46.265Z,1.38
2022-11-23T15:38:51.134Z,2.65
2022-11-23T15:41:55.055Z,1.45
2022-11-23T15:44:58.589Z,2.22
2022-11-23T15:48:04.769Z,6.18
2022-11-23T15:51:12.133Z,2.05
2022-11-23T15:54:21.690Z,3.10
2022-11-23T15:57:28.698Z,1.77
2022-11-23T16:00:32.917Z,1.35
2022-11-23T16:03:41.304Z,0.80
2022-11-23T16:06:49.243Z,2.03
2022-11-23T16:10:07.378Z,2.03
2022-11-23T16:13:40.148Z,1.23
2022-11-23T16:16:46.036Z,2.90
2022-11-23T16:19:51.357Z,3.53
2022-11-23T16:22:56.466Z,1.58
2022-11-23T16:26:04.973Z,1.42
2022-11-23T16:29:23.012Z,2.35
2022-11-23T16:32:32.471Z,5.13
2022-11-23T16:35:35.530Z,6.53
2022-11-23T16:38:38.719Z,7.95
2022-11-23T16:41:41.783Z,5.10
2022-11-23T16:44:45.298Z,1.67
2022-11-23T16:48:03.309Z,2.95
2022-11-23T16:51:07.194Z,1.10
2022-11-23T16:54:16.083Z,1.23
2022-11-23T16:57:24.694Z,5.88
2022-11-23T17:00:27.746Z,2.83
2022-11-23T17:03:31.276Z,2.78
2022-11-23T17:06:34.365Z,4.00
2022-11-23T17:09:38.855Z,3.03
2022-11-23T17:12:53.195Z,3.20
2022-11-23T17:15:56.683Z,4.68
2022-11-23T17:18:59.771Z,2.10
2022-11-23T17:22:02.707Z,2.17
2022-11-23T17:25:11.591Z,2.88
2022-11-23T17:28:22.940Z,18.00
2022-11-23T17:31:26.070Z,5.63
2022-11-23T17:34:29.194Z,4.53
2022-11-23T17:37:32.399Z,1.77
2022-11-23T17:40:36.304Z,4.47
2022-11-23T17:43:39.298Z,2.70
2022-11-23T17:46:43.212Z,2.63
2022-11-23T17:49:46.242Z,3.88
2022-11-23T17:52:49.448Z,4.32
2022-11-23T17:55:52.523Z,2.22
2022-11-23T17:58:55.672Z,4.35
2022-11-23T18:01:58.932Z,5.30
2022-11-23T18:05:02.133Z,9.20
2022-11-23T18:08:05.429Z,4.50
2022-11-23T18:11:08.948Z,5.03
2022-11-23T18:14:12.161Z,4.22
2022-11-23T18:17:16.616Z,4.43
2022-11-23T18:20:19.810Z,3.03
2022-11-23T18:23:22.812Z,2.55
2022-11-23T18:26:27.734Z,3.80
2022-11-23T18:29:31.367Z,3.63
2022-11-23T18:32:34.477Z,2.38
2022-11-23T18:35:37.539Z,4.55
2022-11-23T18:38:41.270Z,1.45
2022-11-23T18:41:44.468Z,1.30
2022-11-23T18:44:47.614Z,4.63
2022-11-23T18:47:50.571Z,2.55
2022-11-23T18:50:54.809Z,1.92
2022-11-23T18:54:00.068Z,2.53
2022-11-23T18:57:03.060Z,2.47
2022-11-23T19:00:08.084Z,2.88
2022-11-23T19:03:11.757Z,2.63
2022-11-23T19:06:16.451Z,6.07
2022-11-23T19:09:19.495Z,5.10
2022-11-23T19:12:22.481Z,7.97
2022-11-23T19:15:25.613Z,7.70
2022-11-23T19:18:28.715Z,3.85
2022-11-23T19:21:33.520Z,5.72
2022-11-23T19:24:36.528Z,8.13
2022-11-23T19:27:40.984Z,4.75
2022-11-23T19:33:48.436Z,5.18
2022-11-23T19:36:51.448Z,3.92
2022-11-23T19:39:54.510Z,5.05
2022-11-23T19:42:57.452Z,6.03
2022-11-23T19:46:02.924Z,3.00
2022-11-23T19:49:06.145Z,13.18
2022-11-23T19:52:09.201Z,6.10
2022-11-23T19:55:12.224Z,5.05
2022-11-23T19:58:16.068Z,14.23
2022-11-23T20:01:20.868Z,4.20
2022-11-23T20:04:23.946Z,3.33
2022-11-23T20:07:27.037Z,5.40
2022-11-23T20:10:30.220Z,3.60
2022-11-23T20:13:35.105Z,9.05
2022-11-23T20:16:39.091Z,5.40
2022-11-23T20:19:42.229Z,4.22
2022-11-23T20:22:45.616Z,4.22
2022-11-23T20:25:48.717Z,5.97
2022-11-23T20:28:54.180Z,1.98
2022-11-23T20:31:57.442Z,9.90
2022-11-23T20:35:00.866Z,5.13
2022-11-23T20:38:05.643Z,3.20
2022-11-23T20:41:28.580Z,6.05
2022-11-23T20:44:34.092Z,3.55
2022-11-23T20:47:37.788Z,14.65
2022-11-23T20:50:40.823Z,7.97
2022-11-23T20:53:46.992Z,8.07
2022-11-23T20:56:50.053Z,7.10
2022-11-23T20:59:53.952Z,3.33
2022-11-23T21:02:57.400Z,8.13
2022-11-23T21:06:08.525Z,8.40
2022-11-23T21:09:12.072Z,7.25
2022-11-23T21:12:33.549Z,9.43
2022-11-23T21:15:36.555Z,4.85
2022-11-23T21:18:39.653Z,5.75
2022-11-23T21:21:42.932Z,6.10
2022-11-23T21:24:46.031Z,5.28
2022-11-23T21:27:48.974Z,5.95
2022-11-23T21:30:51.866Z,9.25
2022-11-23T21:33:55.523Z,5.82
2022-11-23T21:36:59.113Z,4.43
2022-11-23T21:40:02.241Z,5.47
2022-11-23T21:43:05.212Z,6.72
2022-11-23T21:46:11.929Z,6.30
2022-11-23T21:49:15.158Z,2.45
2022-11-23T21:52:18.448Z,3.78
2022-11-23T21:55:21.404Z,3.38
2022-11-23T21:58:24.413Z,4.60
2022-11-23T22:01:33.168Z,4.80
2022-11-23T22:04:38.396Z,10.75
2022-11-23T22:07:47.373Z,10.65
2022-11-23T22:10:58.246Z,7.97
2022-11-23T22:14:05.203Z,3.50
2022-11-23T22:17:08.166Z,5.65
2022-11-23T22:20:11.995Z,3.83
2022-11-23T22:23:14.938Z,27.02
2022-11-23T22:26:19.368Z,4.78
2022-11-23T22:32:25.572Z,10.52
2022-11-23T22:35:28.616Z,6.07
2022-11-23T22:38:34.538Z,7.90
2022-11-23T22:41:38.263Z,3.95
2022-11-23T22:44:41.472Z,10.18
2022-11-23T22:47:44.425Z,9.23
2022-11-23T22:50:58.306Z,7.10
2022-11-23T22:54:02.219Z,7.65
2022-11-23T22:57:05.866Z,8.82
2022-11-23T23:00:11.459Z,14.60
2022-11-23T23:03:14.509Z,7.40
2022-11-23T23:06:22.590Z,21.10
2022-11-23T23:09:25.622Z,12.20
2022-11-23T23:12:28.707Z,5.15
2022-11-23T23:15:31.759Z,5.30
2022-11-23T23:18:35.480Z,7.78
2022-11-23T23:21:38.489Z,4.60
2022-11-23T23:24:41.759Z,8.23
2022-11-23T23:27:44.784Z,8.40
2022-11-23T23:30:47.797Z,5.95
2022-11-23T23:33:50.911Z,4.45
2022-11-23T23:36:53.870Z,4.47
2022-11-23T23:39:56.828Z,3.95
2022-11-23T23:43:00.235Z,3.65
2022-11-23T23:46:06.492Z,6.45
2022-11-23T23:49:09.516Z,3.63
2022-11-23T23:52:12.557Z,5.55
2022-11-23T23:55:15.555Z,15.88
2022-11-23T23:58:18.530Z,3.28
